Terminal Aerodrome Forecast
Issued by NWS

Home | Current Version | Previous Version | Text Only | Print | Product List | Glossary On
Versions: 1 2 3 4 5 6 7 8 9 10 11 12 13 14 15 16 17 18 19 20 21 22 23 24
404
FTAK31 PAJN 190928 AAA
TAFAYA
TAF AMD
PAYA 190928Z 1909/2006 09003KT P6SM BKN110
     FM191200 12010KT 4SM -SHRA BR SCT010 BKN015 OVC025
      WS020/15025KT
     FM191500 12010KT 6SM -SHRA BR FEW006 SCT010 OVC035
      WS020/14040KT
     FM192100 11008KT P6SM -SHRA SCT025 BKN035 OVC040
      AMD LTD TO CLD VIS AND WIND=

USA.gov is the U.S. government's official web portal to all federal, state and local government web resources and services.